Los Angeles, California
Traffic Map
Current Weather Conditions
Los Angeles, California
Clear
Clear
17°
Feels Like: 17°
Wind Chill: 17° Ceiling: Unl
Heat Index: 17° Visibility: 10mi
Dew Point: -6° Wind: 3mph
Humidity: 21% Direction: 30° (NNE)
Pressure: 30.09in Gusts: 0mph
Raw Report DataKCQT 271347Z AUTO 03003KT 10SM CLR 17/M06 A3009 RMK AO2 SLP188 T01671061
Traffic Incident Summary
Active as of:
Severity:
Category:
InformationThere was an issue retrieving the traffic information for this location. Please try a different location or try again shortly.
Advertisements
Track Severe Weather on mobile